Time;durP1;ratioP1;P1;durP2;ratioP2;P2;SDS_P1;SDS_P2;PMS_P1;PMS_P2;Temp;Humidity;BMP_temperature;BMP_pressure;BME280_temperature;BME280_humidity;BME280_pressure;Samples;Min_cycle;Max_cycle;Signal;HPM_P1;HPM_P2
2023/08/18 00:00:34;;;;;;;5.90;4.25;;;;;;;16.09;100.00;101732.09;1049233;28;20103;-53
2023/08/18 00:01:18;;;;;;;6.82;5.13;;;;;;;16.10;100.00;101733.75;1048652;28;20040;-54
2023/08/18 00:01:51;;;;;;;5.05;4.35;;;;;;;16.12;100.00;101737.03;1043890;28;20438;-53
2023/08/18 00:02:25;;;;;;;5.03;4.32;;;;;;;16.08;100.00;101730.47;1044429;28;20045;-54
2023/08/18 00:02:57;;;;;;;5.03;4.53;;;;;;;16.07;100.00;101728.84;1035558;28;20053;-53
2023/08/18 00:03:29;;;;;;;5.03;4.32;;;;;;;16.05;100.00;101736.31;1037136;28;20057;-53
2023/08/18 00:04:00;;;;;;;4.70;4.30;;;;;;;16.03;100.00;101733.84;1044960;28;20037;-55
2023/08/18 00:04:32;;;;;;;4.50;4.03;;;;;;;16.05;100.00;101730.94;1043287;28;20069;-54
2023/08/18 00:05:10;;;;;;;4.88;4.22;;;;;;;16.04;100.00;101729.31;1048754;28;20033;-54
2023/08/18 00:05:42;;;;;;;7.35;4.45;;;;;;;16.03;100.00;101724.97;1047693;28;20029;-52
2023/08/18 00:06:13;;;;;;;5.05;4.30;;;;;;;16.04;100.00;101723.94;1048288;28;20057;-52
2023/08/18 00:06:45;;;;;;;5.78;5.03;;;;;;;16.07;100.00;101731.53;1048099;28;20040;-52
2023/08/18 00:07:18;;;;;;;5.20;3.97;;;;;;;16.05;100.00;101725.56;1048114;28;20040;-54
2023/08/18 00:07:53;;;;;;;5.38;4.15;;;;;;;16.04;100.00;101729.31;1047884;28;20040;-54
2023/08/18 00:08:28;;;;;;;7.72;4.32;;;;;;;16.04;100.00;101723.94;1048056;28;20542;-53
2023/08/18 00:08:59;;;;;;;5.47;4.32;;;;;;;16.05;100.00;101729.06;1046239;28;20476;-56
2023/08/18 00:09:31;;;;;;;5.40;4.25;;;;;;;16.06;100.00;101730.72;1048171;28;20045;-55
2023/08/18 00:10:03;;;;;;;5.63;5.13;;;;;;;16.08;100.00;101717.84;1047867;28;20056;-55
2023/08/18 00:10:35;;;;;;;4.38;3.97;;;;;;;16.08;100.00;101725.09;1048539;28;20052;-55
2023/08/18 00:11:08;;;;;;;4.65;4.22;;;;;;;16.07;100.00;101724.28;1048269;28;20522;-54
2023/08/18 00:11:55;;;;;;;4.78;4.20;;;;;;;16.09;100.00;101721.34;1041534;28;20076;-54
2023/08/18 00:12:28;;;;;;;7.07;4.88;;;;;;;16.08;100.00;101725.09;1044243;28;20098;-53
2023/08/18 00:13:00;;;;;;;4.65;4.22;;;;;;;16.08;100.00;101714.34;1043564;28;20037;-53
2023/08/18 00:13:32;;;;;;;5.18;4.15;;;;;;;16.03;100.00;101724.97;1048424;28;20098;-53
2023/08/18 00:14:30;;;;;;;4.80;3.60;;;;;;;16.07;100.00;101720.78;1048855;28;20186;-55
2023/08/18 00:15:05;;;;;;;4.55;4.13;;;;;;;16.06;100.00;101721.81;1043437;28;20045;-55
2023/08/18 00:15:36;;;;;;;5.97;4.22;;;;;;;16.07;100.00;101720.78;1043908;28;20306;-55
2023/08/18 00:16:15;;;;;;;5.50;4.18;;;;;;;16.05;100.00;101714.81;1047731;28;20079;-55
2023/08/18 00:16:47;;;;;;;4.20;3.80;;;;;;;15.91;100.00;101726.84;1045690;28;20403;-53
2023/08/18 00:17:19;;;;;;;6.93;4.30;;;;;;;15.96;100.00;101716.22;1047812;28;20426;-53
2023/08/18 00:17:51;;;;;;;4.07;3.67;;;;;;;16.01;100.00;101721.69;1044134;28;20847;-54
2023/08/18 00:18:22;;;;;;;5.45;3.90;;;;;;;16.04;100.00;101723.94;1043150;28;20522;-53
2023/08/18 00:18:54;;;;;;;4.40;4.00;;;;;;;16.06;100.00;101721.81;1043980;28;20052;-53
2023/08/18 00:19:26;;;;;;;4.35;3.75;;;;;;;16.06;100.00;101721.81;1045559;28;20048;-52
2023/08/18 00:19:58;;;;;;;5.28;4.22;;;;;;;16.05;100.00;101717.50;1048324;28;20040;-52
2023/08/18 00:20:30;;;;;;;3.92;3.47;;;;;;;15.97;100.00;101717.84;1049596;28;20430;-55
2023/08/18 00:21:09;;;;;;;4.13;3.70;;;;;;;16.00;100.00;101712.81;1043965;28;20041;-55
2023/08/18 00:21:43;;;;;;;3.85;3.55;;;;;;;16.03;100.00;101719.59;1040579;28;20521;-55
2023/08/18 00:22:24;;;;;;;4.40;3.78;;;;;;;16.03;100.00;101712.34;1039656;28;20531;-54
2023/08/18 00:23:06;;;;;;;5.53;4.18;;;;;;;16.07;100.00;101713.53;1035849;28;20523;-53
2023/08/18 00:23:39;;;;;;;4.57;4.18;;;;;;;16.03;100.00;101711.53;1040169;28;20045;-54
2023/08/18 00:24:22;;;;;;;6.20;5.00;;;;;;;16.00;100.00;101718.19;1043750;28;20060;-55
2023/08/18 00:25:05;;;;;;;5.07;4.57;;;;;;;16.01;100.00;101719.00;1038857;28;20645;-54
2023/08/18 00:25:39;;;;;;;5.07;4.57;;;;;;;16.01;100.00;101706.41;1035279;28;20492;-53
2023/08/18 00:26:11;;;;;;;5.15;4.72;;;;;;;15.99;100.00;101715.75;1039367;28;20053;-53
2023/08/18 00:26:45;;;;;;;6.00;3.90;;;;;;;15.96;100.00;101710.84;1043841;28;20120;-53
2023/08/18 00:27:21;;;;;;;5.72;4.53;;;;;;;15.97;100.00;101707.09;1040286;28;20046;-55
2023/08/18 00:28:00;;;;;;;4.82;3.85;;;;;;;15.96;100.00;101705.47;1035677;28;20037;-54
2023/08/18 00:28:32;;;;;;;5.28;4.53;;;;;;;15.93;100.00;101709.44;1035304;28;20529;-51
2023/08/18 00:29:09;;;;;;;4.30;3.90;;;;;;;15.92;100.00;101706.97;1039233;28;20404;-55
2023/08/18 00:29:45;;;;;;;5.80;4.28;;;;;;;15.90;100.00;101706.38;1044434;28;20041;-52
2023/08/18 00:30:24;;;;;;;4.90;4.13;;;;;;;15.92;100.00;101709.66;1047637;28;20044;-53
2023/08/18 00:30:56;;;;;;;6.90;4.07;;;;;;;15.92;100.00;101715.03;1043616;28;20410;-53
2023/08/18 00:31:28;;;;;;;6.13;5.25;;;;;;;15.93;100.00;101706.75;1045994;28;20060;-53
2023/08/18 00:31:59;;;;;;;5.43;4.15;;;;;;;15.97;100.00;101707.09;1047605;28;20307;-53
2023/08/18 00:32:38;;;;;;;6.30;4.75;;;;;;;15.98;100.00;101706.03;1048722;28;20032;-54
2023/08/18 00:33:21;;;;;;;6.85;4.72;;;;;;;16.00;100.00;101706.63;1044126;28;20126;-53
2023/08/18 00:33:53;;;;;;;7.85;4.47;;;;;;;15.97;100.00;101707.09;1039304;28;20041;-52
2023/08/18 00:34:25;;;;;;;7.03;4.10;;;;;;;15.99;100.00;101705.00;1036228;28;20041;-54
2023/08/18 00:35:08;;;;;;;4.65;4.18;;;;;;;15.94;100.00;101705.69;1031219;28;20551;-54
2023/08/18 00:35:39;;;;;;;6.65;4.18;;;;;;;15.92;100.00;101709.66;1033828;28;20047;-52
2023/08/18 00:36:14;;;;;;;5.78;4.28;;;;;;;15.88;100.00;101705.75;1037691;28;20496;-53
2023/08/18 00:36:46;;;;;;;6.10;5.50;;;;;;;15.87;100.00;101707.63;1044532;28;20122;-55
2023/08/18 00:37:17;;;;;;;6.57;4.97;;;;;;;15.89;100.00;101707.44;1048318;28;20048;-56
2023/08/18 00:37:49;;;;;;;4.47;4.07;;;;;;;15.92;100.00;101713.16;1049018;28;20046;-54
2023/08/18 00:38:21;;;;;;;4.10;3.70;;;;;;;15.94;100.00;101710.25;1047504;28;20143;-51
2023/08/18 00:38:53;;;;;;;5.07;4.57;;;;;;;15.93;100.00;101709.44;1047843;28;20036;-51
2023/08/18 00:39:25;;;;;;;4.95;3.63;;;;;;;15.93;100.00;101711.28;1043521;28;20052;-51
2023/08/18 00:39:56;;;;;;;7.22;5.32;;;;;;;15.92;100.00;101715.03;1048253;28;20103;-53
2023/08/18 00:40:28;;;;;;;5.13;4.47;;;;;;;15.91;100.00;101708.84;1043671;28;20136;-50
2023/08/18 00:41:05;;;;;;;8.10;4.57;;;;;;;15.94;100.00;101712.94;1044020;28;20037;-52
2023/08/18 00:41:37;;;;;;;7.13;4.70;;;;;;;15.92;100.00;101720.41;1043651;28;20562;-53
2023/08/18 00:42:09;;;;;;;5.22;4.72;;;;;;;15.94;100.00;101712.94;1040964;28;20049;-53
2023/08/18 00:42:49;;;;;;;5.28;4.75;;;;;;;15.93;100.00;101711.28;1040981;28;20045;-52
2023/08/18 00:43:22;;;;;;;4.82;3.95;;;;;;;15.94;100.00;101719.13;1038381;28;20056;-52
2023/08/18 00:43:55;;;;;;;4.55;4.15;;;;;;;15.92;100.00;101709.66;1036128;28;20049;-55
2023/08/18 00:44:29;;;;;;;5.80;4.80;;;;;;;15.93;100.00;101722.03;1035799;28;20050;-55
2023/08/18 00:45:02;;;;;;;5.90;5.00;;;;;;;15.93;100.00;101717.50;1040919;28;20044;-54
2023/08/18 00:45:43;;;;;;;7.47;4.65;;;;;;;15.94;100.00;101721.00;1046537;28;20048;-55
2023/08/18 00:46:19;;;;;;;6.20;4.13;;;;;;;15.94;100.00;101713.75;1040565;28;20519;-54
2023/08/18 00:46:51;;;;;;;4.82;3.85;;;;;;;15.96;100.00;101710.84;1040107;28;20042;-51
2023/08/18 00:47:31;;;;;;;6.60;4.55;;;;;;;15.96;100.00;101711.66;1039471;28;20038;-53
2023/08/18 00:48:12;;;;;;;6.68;4.10;;;;;;;15.98;100.00;101714.09;1035625;28;20088;-55
2023/08/18 00:48:43;;;;;;;5.45;4.88;;;;;;;15.95;100.00;101719.94;1030145;28;20819;-55
2023/08/18 00:49:17;;;;;;;4.70;4.20;;;;;;;15.98;100.00;101714.09;1034429;28;20053;-56
2023/08/18 00:49:49;;;;;;;6.38;4.97;;;;;;;15.96;100.00;101716.22;1038910;28;20854;-55
2023/08/18 00:50:36;;;;;;;5.20;4.70;;;;;;;15.95;100.00;101720.75;1045087;28;20074;-55
2023/08/18 00:51:11;;;;;;;5.20;4.72;;;;;;;15.98;100.00;101714.09;1043643;28;20056;-55
2023/08/18 00:51:45;;;;;;;6.65;5.63;;;;;;;15.98;100.00;101719.47;1039027;28;20515;-55
2023/08/18 00:52:20;;;;;;;6.38;5.72;;;;;;;15.98;100.00;101714.09;1039860;28;20124;-55
2023/08/18 00:52:57;;;;;;;8.13;5.70;;;;;;;15.96;100.00;101717.03;1035236;28;20042;-54
2023/08/18 00:53:31;;;;;;;5.75;5.25;;;;;;;15.97;100.00;101720.53;1038570;28;20179;-55
2023/08/18 00:54:04;;;;;;;6.47;4.93;;;;;;;15.98;100.00;101719.47;1039754;28;20080;-55
2023/08/18 00:54:46;;;;;;;6.40;5.43;;;;;;;15.97;100.00;101720.53;1042022;28;20041;-53
2023/08/18 00:55:32;;;;;;;7.63;5.32;;;;;;;15.98;100.00;101716.78;1040631;28;20071;-53
2023/08/18 00:56:06;;;;;;;9.40;5.30;;;;;;;16.00;100.00;101722.75;1040072;28;20116;-55
2023/08/18 00:56:40;;;;;;;5.75;5.25;;;;;;;16.00;100.00;101728.94;1035360;28;20046;-53
2023/08/18 00:57:11;;;;;;;6.55;5.28;;;;;;;15.96;100.00;101714.34;1038262;28;20041;-52
2023/08/18 00:57:51;;;;;;;6.43;5.85;;;;;;;15.95;100.00;101723.44;1041338;28;20111;-52
2023/08/18 00:58:30;;;;;;;6.65;6.03;;;;;;;15.93;100.00;101712.13;1045452;28;20405;-53
2023/08/18 00:59:02;;;;;;;8.25;5.22;;;;;;;15.93;100.00;101719.34;1044285;28;20400;-55
2023/08/18 00:59:34;;;;;;;7.20;6.10;;;;;;;15.94;100.00;101724.50;1043706;28;20056;-53
2023/08/18 01:00:07;;;;;;;6.85;6.18;;;;;;;15.94;100.00;101729.06;1043491;28;20064;-53
2023/08/18 01:00:40;;;;;;;6.55;5.05;;;;;;;15.92;100.00;101725.78;1041668;28;20041;-52
2023/08/18 01:01:19;;;;;;;7.07;5.82;;;;;;;15.92;100.00;101723.09;1047636;28;20155;-53
2023/08/18 01:02:19;;;;;;;6.15;5.57;;;;;;;15.93;100.00;101724.72;1043198;28;20045;-53
2023/08/18 01:02:55;;;;;;;7.25;6.03;;;;;;;15.91;100.00;101727.66;1043173;28;20718;-54
2023/08/18 01:03:49;;;;;;;7.32;5.88;;;;;;;15.89;100.00;101726.25;1038780;28;20547;-55
2023/08/18 01:04:25;;;;;;;12.07;7.95;;;;;;;15.94;100.00;101729.06;1032330;28;20043;-55
2023/08/18 01:05:00;;;;;;;7.97;7.20;;;;;;;15.93;100.00;101722.03;1027777;28;20368;-55
2023/08/18 01:05:42;;;;;;;6.80;6.10;;;;;;;16.00;100.00;101730.81;1036452;28;20034;-53
2023/08/18 01:06:44;;;;;;;8.95;6.28;;;;;;;15.98;100.00;101724.84;1040978;28;20045;-53
2023/08/18 01:07:27;;;;;;;9.88;6.60;;;;;;;15.98;100.00;101724.84;1044726;28;20330;-55
2023/08/18 01:08:07;;;;;;;8.93;5.95;;;;;;;15.99;100.00;101726.50;1033074;28;20069;-53
2023/08/18 01:08:40;;;;;;;7.35;6.55;;;;;;;16.00;100.00;101722.75;1035209;28;20487;-53
2023/08/18 01:09:13;;;;;;;11.73;6.43;;;;;;;16.03;100.00;101723.09;1034047;28;20308;-51
2023/08/18 01:09:57;;;;;;;8.25;6.63;;;;;;;16.01;100.00;101721.69;1040919;28;20053;-53
2023/08/18 01:10:32;;;;;;;8.65;6.18;;;;;;;16.01;100.00;101724.38;1036769;28;20054;-54
2023/08/18 01:11:16;;;;;;;9.45;7.50;;;;;;;15.95;100.00;101717.25;1038489;28;20426;-56
2023/08/18 01:12:17;;;;;;;9.25;6.72;;;;;;;15.94;100.00;101718.31;1039531;28;20124;-54
2023/08/18 01:13:06;;;;;;;8.25;7.40;;;;;;;15.88;100.00;101714.66;1045394;28;20044;-55
2023/08/18 01:14:02;;;;;;;10.18;7.38;;;;;;;15.91;100.00;101718.78;1043338;28;20044;-55
2023/08/18 01:14:52;;;;;;;9.27;7.50;;;;;;;15.91;100.00;101713.41;1045550;28;20402;-52
2023/08/18 01:15:40;;;;;;;9.02;8.07;;;;;;;15.92;100.00;101715.03;1045784;28;20538;-50
2023/08/18 01:16:20;;;;;;;12.02;7.93;;;;;;;15.91;100.00;101713.41;1044768;28;20052;-52
2023/08/18 01:17:07;;;;;;;8.65;7.82;;;;;;;15.90;100.00;101711.75;1040413;28;20060;-54
2023/08/18 01:17:55;;;;;;;10.40;8.75;;;;;;;15.91;100.00;101716.91;1039426;28;20528;-53
2023/08/18 01:18:37;;;;;;;9.73;7.82;;;;;;;15.91;100.00;101713.41;1040396;28;20124;-51
2023/08/18 01:19:09;;;;;;;11.75;9.38;;;;;;;15.93;100.00;101717.50;1043229;28;20314;-53
2023/08/18 01:19:41;;;;;;;10.88;8.32;;;;;;;15.93;100.00;101716.66;1039293;28;20303;-53
2023/08/18 01:20:13;;;;;;;9.38;8.27;;;;;;;15.95;100.00;101709.19;1037427;28;20797;-54
2023/08/18 01:20:48;;;;;;;9.18;8.25;;;;;;;15.95;100.00;101714.56;1034196;28;20061;-51
2023/08/18 01:21:24;;;;;;;9.90;8.40;;;;;;;15.94;100.00;101712.94;1035494;28;20061;-53
2023/08/18 01:21:59;;;;;;;10.10;8.25;;;;;;;15.93;100.00;101712.13;1035510;28;20821;-53
2023/08/18 01:22:34;;;;;;;13.48;9.52;;;;;;;15.91;100.00;101711.53;1030847;28;20049;-52
2023/08/18 01:23:09;;;;;;;12.40;9.13;;;;;;;15.89;100.00;101705.56;1033562;28;20056;-52
2023/08/18 01:23:41;;;;;;;11.73;8.23;;;;;;;15.91;100.00;101711.53;1043345;28;20041;-52
2023/08/18 01:24:18;;;;;;;9.52;8.52;;;;;;;15.90;100.00;101706.38;1044931;28;20291;-54
2023/08/18 01:24:58;;;;;;;15.45;10.25;;;;;;;15.87;100.00;101702.25;1039465;28;20041;-55
2023/08/18 01:25:46;;;;;;;12.90;8.82;;;;;;;15.88;100.00;101705.75;1036396;28;20335;-54
2023/08/18 01:26:20;;;;;;;10.77;9.68;;;;;;;15.86;100.00;101708.69;1039883;28;20659;-55
2023/08/18 01:26:53;;;;;;;11.25;9.40;;;;;;;15.85;100.00;101700.84;1047643;28;20043;-51
2023/08/18 01:27:24;;;;;;;10.45;9.00;;;;;;;15.86;100.00;101710.56;1044609;28;20303;-51
2023/08/18 01:27:57;;;;;;;10.13;9.05;;;;;;;15.92;100.00;101706.97;1043637;28;20048;-53
2023/08/18 01:28:30;;;;;;;12.48;9.98;;;;;;;15.91;100.00;101708.03;1039868;28;20311;-50
2023/08/18 01:29:01;;;;;;;11.32;9.07;;;;;;;15.90;100.00;101701.00;1036387;28;20050;-53
2023/08/18 01:29:34;;;;;;;12.40;9.75;;;;;;;15.91;100.00;101702.66;1040916;28;20088;-52
2023/08/18 01:30:07;;;;;;;12.73;9.70;;;;;;;15.88;100.00;101703.09;1044342;28;20041;-53
2023/08/18 01:30:51;;;;;;;11.70;9.90;;;;;;;15.84;100.00;101708.09;1040115;28;20045;-52
2023/08/18 01:31:28;;;;;;;12.80;9.85;;;;;;;15.86;100.00;101705.19;1037140;28;20042;-51
2023/08/18 01:32:17;;;;;;;11.02;8.90;;;;;;;15.79;100.00;101707.16;1039442;28;20045;-53
2023/08/18 01:33:18;;;;;;;12.55;9.27;;;;;;;15.80;100.00;101709.63;1040035;28;20038;-52
2023/08/18 01:34:00;;;;;;;10.50;9.25;;;;;;;15.85;100.00;101700.84;1037755;28;20033;-53
2023/08/18 01:34:40;;;;;;;16.40;10.48;;;;;;;15.84;100.00;101704.59;1043806;28;20045;-55
2023/08/18 01:35:18;;;;;;;14.13;9.55;;;;;;;15.81;100.00;101702.38;1040147;28;20041;-53
2023/08/18 01:35:59;;;;;;;10.75;9.20;;;;;;;15.76;100.00;101703.88;1032481;28;20043;-52
2023/08/18 01:36:39;;;;;;;16.33;11.15;;;;;;;15.78;100.00;101698.28;1026886;28;20664;-52
2023/08/18 01:37:16;;;;;;;12.43;10.40;;;;;;;15.79;100.00;101701.78;1032829;28;20473;-52
2023/08/18 01:37:53;;;;;;;10.85;9.75;;;;;;;15.76;100.00;101695.00;1038844;28;20467;-53
2023/08/18 01:38:44;;;;;;;12.65;10.43;;;;;;;15.76;100.00;101692.31;1038601;28;20831;-52
2023/08/18 01:39:18;;;;;;;13.50;10.15;;;;;;;15.76;100.00;101698.50;1033808;28;20050;-52
2023/08/18 01:39:53;;;;;;;14.75;10.95;;;;;;;15.77;100.00;101696.63;1039261;28;20135;-52
2023/08/18 01:40:29;;;;;;;12.68;10.07;;;;;;;15.79;100.00;101694.53;1044726;28;20356;-54
2023/08/18 01:41:03;;;;;;;13.85;10.43;;;;;;;15.81;100.00;101703.19;1050395;28;20709;-54
2023/08/18 01:41:38;;;;;;;12.38;9.82;;;;;;;15.82;100.00;101698.63;1051460;28;20294;-53
2023/08/18 01:42:16;;;;;;;13.88;11.32;;;;;;;15.84;100.00;101696.53;1048094;28;20344;-54
2023/08/18 01:42:58;;;;;;;15.38;12.95;;;;;;;15.81;100.00;101691.63;1041052;28;20353;-52
2023/08/18 01:43:35;;;;;;;15.70;11.35;;;;;;;15.81;100.00;101694.31;1039439;28;20719;-53
2023/08/18 01:44:07;;;;;;;11.95;9.80;;;;;;;15.79;100.00;101691.03;1039458;28;20431;-52
2023/08/18 01:44:39;;;;;;;15.65;11.52;;;;;;;15.82;100.00;101687.88;1039652;28;20053;-52
2023/08/18 01:45:22;;;;;;;12.73;10.35;;;;;;;15.81;100.00;101691.63;1036067;28;20077;-54
2023/08/18 01:46:04;;;;;;;19.98;11.70;;;;;;;15.82;100.00;101693.25;1032128;28;20301;-55
2023/08/18 01:46:45;;;;;;;15.63;10.98;;;;;;;15.79;100.00;101688.34;1039478;28;20812;-54
2023/08/18 01:47:21;;;;;;;15.95;11.32;;;;;;;15.75;100.00;101688.81;1038634;28;20064;-54
2023/08/18 01:48:04;;;;;;;11.73;10.40;;;;;;;15.79;100.00;101693.72;1040331;28;20041;-53
2023/08/18 01:48:52;;;;;;;21.38;12.18;;;;;;;15.82;100.00;101687.88;1044454;28;20296;-54
2023/08/18 01:49:38;;;;;;;13.93;10.85;;;;;;;15.83;100.00;101676.09;1040913;28;20363;-53
2023/08/18 01:50:22;;;;;;;12.55;11.10;;;;;;;15.84;100.00;101683.09;1042131;28;20698;-51
2023/08/18 01:50:54;;;;;;;14.15;10.48;;;;;;;15.88;100.00;101684.28;1043179;28;20090;-53
2023/08/18 01:51:26;;;;;;;16.65;11.45;;;;;;;15.82;100.00;101677.16;1043436;28;20048;-52
2023/08/18 01:51:58;;;;;;;15.27;10.98;;;;;;;15.84;100.00;101675.03;1037934;28;20522;-54
2023/08/18 01:52:30;;;;;;;17.83;12.27;;;;;;;15.82;100.00;101674.44;1039584;28;20311;-54
2023/08/18 01:53:03;;;;;;;15.88;11.43;;;;;;;15.79;100.00;101678.44;1036355;28;20041;-49
2023/08/18 01:53:34;;;;;;;15.52;10.95;;;;;;;15.80;100.00;101671.19;1040659;28;20476;-53
2023/08/18 01:54:08;;;;;;;12.50;10.90;;;;;;;15.82;100.00;101669.09;1043415;28;20371;-52
2023/08/18 01:54:39;;;;;;;15.40;10.88;;;;;;;15.80;100.00;101671.19;1044749;28;20049;-52
2023/08/18 01:55:24;;;;;;;12.05;10.30;;;;;;;15.77;100.00;101670.59;1039759;28;20391;-53
2023/08/18 01:56:10;;;;;;;15.10;11.65;;;;;;;15.62;100.00;101674.78;1039944;28;20207;-51
2023/08/18 01:56:54;;;;;;;12.43;10.60;;;;;;;15.70;100.00;101671.75;1039400;28;20647;-55
2023/08/18 01:57:29;;;;;;;15.40;10.52;;;;;;;15.76;100.00;101670.81;1035545;28;20527;-53
2023/08/18 01:58:02;;;;;;;14.55;11.23;;;;;;;15.75;100.00;101672.69;1035140;28;20059;-52
2023/08/18 01:58:33;;;;;;;20.27;11.15;;;;;;;15.75;100.00;101672.69;1034827;28;20081;-52
2023/08/18 01:59:07;;;;;;;18.80;12.25;;;;;;;15.75;100.00;101672.69;1039659;28;20077;-52
2023/08/18 01:59:39;;;;;;;17.20;11.82;;;;;;;15.74;100.00;101668.38;1039382;28;20860;-53
2023/08/18 02:00:14;;;;;;;15.30;10.73;;;;;;;15.74;100.00;101663.00;1039731;28;20037;-53
2023/08/18 02:01:00;;;;;;;13.23;11.75;;;;;;;15.79;100.00;101666.84;1035053;28;20045;-51
2023/08/18 02:01:36;;;;;;;15.38;11.50;;;;;;;15.75;100.00;101670.00;1035285;28;20300;-54
2023/08/18 02:02:15;;;;;;;13.27;11.57;;;;;;;15.76;100.00;101668.97;1036250;28;20087;-51
2023/08/18 02:02:50;;;;;;;13.90;10.77;;;;;;;15.75;100.00;101669.19;1039633;28;20350;-51
2023/08/18 02:03:27;;;;;;;12.90;10.90;;;;;;;15.75;100.00;101664.63;1035994;28;20301;-55
2023/08/18 02:03:59;;;;;;;14.85;12.65;;;;;;;15.76;100.00;101662.78;1039773;28;20313;-55
2023/08/18 02:04:31;;;;;;;13.52;12.10;;;;;;;15.74;100.00;101667.56;1041023;28;20496;-55
2023/08/18 02:05:06;;;;;;;16.88;12.73;;;;;;;15.77;100.00;101667.91;1041624;28;20311;-55
2023/08/18 02:05:42;;;;;;;16.08;11.93;;;;;;;15.73;100.00;101663.22;1035412;28;20053;-53
2023/08/18 02:06:13;;;;;;;17.52;12.20;;;;;;;15.68;100.00;101671.97;1036525;28;20107;-55
2023/08/18 02:06:48;;;;;;;13.90;12.55;;;;;;;15.49;100.00;101667.69;1039831;28;20311;-52
2023/08/18 02:07:21;;;;;;;13.95;12.05;;;;;;;15.46;100.00;101665.47;1039938;28;20296;-50
2023/08/18 02:07:54;;;;;;;15.73;12.77;;;;;;;15.51;100.00;101670.94;1047629;28;20051;-52
2023/08/18 02:08:48;;;;;;;13.05;11.35;;;;;;;15.61;100.00;101665.06;1043961;28;20230;-53
2023/08/18 02:09:20;;;;;;;20.05;12.15;;;;;;;15.64;100.00;101670.00;1047417;28;20041;-50
2023/08/18 02:09:52;;;;;;;16.35;12.25;;;;;;;15.66;100.00;101668.72;1047747;28;20292;-51
2023/08/18 02:10:31;;;;;;;15.60;11.73;;;;;;;15.68;100.00;101676.53;1047590;28;20475;-52
2023/08/18 02:11:15;;;;;;;13.77;12.27;;;;;;;15.65;100.00;101677.81;1043639;28;20318;-53
2023/08/18 02:11:47;;;;;;;14.80;13.18;;;;;;;15.62;100.00;101672.91;1044107;28;20075;-54
2023/08/18 02:12:28;;;;;;;16.42;12.85;;;;;;;15.67;100.00;101673.03;1040290;28;20053;-52
2023/08/18 02:13:00;;;;;;;18.25;13.57;;;;;;;15.69;100.00;101667.44;1043949;28;20178;-52
2023/08/18 02:13:33;;;;;;;19.30;11.98;;;;;;;15.69;100.00;101668.25;1040214;28;20044;-54
2023/08/18 02:14:11;;;;;;;17.92;11.75;;;;;;;15.53;100.00;101673.41;1029371;28;20302;-54
2023/08/18 02:15:00;;;;;;;15.57;11.70;;;;;;;15.64;100.00;101661.94;1035349;28;20109;-54
2023/08/18 02:15:34;;;;;;;14.32;12.45;;;;;;;15.68;100.00;101665.78;1031122;28;20053;-53
2023/08/18 02:16:12;;;;;;;15.55;12.82;;;;;;;15.70;100.00;101664.50;1032123;28;20046;-55
2023/08/18 02:16:48;;;;;;;16.35;11.52;;;;;;;15.71;100.00;101668.84;1036056;28;20524;-52
2023/08/18 02:17:20;;;;;;;14.00;10.88;;;;;;;15.74;100.00;101660.31;1041735;28;20041;-53
2023/08/18 02:17:52;;;;;;;13.57;12.18;;;;;;;15.73;100.00;101668.59;1040380;28;20041;-53
2023/08/18 02:18:36;;;;;;;14.40;11.80;;;;;;;15.74;100.00;101663.00;1042093;28;20037;-54
2023/08/18 02:19:12;;;;;;;18.35;11.88;;;;;;;15.74;100.00;101660.31;1038028;28;20065;-52
2023/08/18 02:19:43;;;;;;;16.42;13.32;;;;;;;15.76;100.00;101662.78;1040734;28;20292;-53
2023/08/18 02:20:22;;;;;;;12.60;11.27;;;;;;;15.76;100.00;101652.84;1043123;28;20053;-49
2023/08/18 02:21:03;;;;;;;15.18;12.85;;;;;;;15.76;100.00;101660.91;1045277;28;20419;-52
2023/08/18 02:21:37;;;;;;;13.57;12.13;;;;;;;15.77;100.00;101659.03;1041261;28;20041;-52
2023/08/18 02:22:17;;;;;;;13.55;11.98;;;;;;;15.79;100.00;101656.13;1041459;28;20503;-53
2023/08/18 02:22:58;;;;;;;13.93;11.88;;;;;;;15.81;100.00;101656.69;1044708;28;20762;-54
2023/08/18 02:23:32;;;;;;;17.00;13.40;;;;;;;15.81;100.00;101659.38;1040029;28;20049;-54
2023/08/18 02:24:04;;;;;;;16.00;12.30;;;;;;;15.82;100.00;101659.16;1043036;28;20402;-54
2023/08/18 02:24:35;;;;;;;17.67;12.75;;;;;;;15.80;100.00;101657.75;1043471;28;20033;-52
2023/08/18 02:25:10;;;;;;;17.48;12.98;;;;;;;15.77;100.00;101654.47;1044714;28;20047;-54
2023/08/18 02:25:46;;;;;;;13.90;11.38;;;;;;;15.74;100.00;101652.25;1036870;28;20140;-55
2023/08/18 02:26:17;;;;;;;18.67;12.57;;;;;;;15.78;100.00;101660.66;1038796;28;20304;-55
2023/08/18 02:26:49;;;;;;;22.77;13.55;;;;;;;15.79;100.00;101651.56;1040714;28;20043;-54
2023/08/18 02:27:28;;;;;;;19.17;13.40;;;;;;;15.79;100.00;101662.31;1037268;28;20523;-54
2023/08/18 02:28:07;;;;;;;16.50;13.10;;;;;;;15.80;100.00;101655.06;1035182;28;20095;-54
2023/08/18 02:28:38;;;;;;;14.15;12.25;;;;;;;15.79;100.00;101648.06;1039502;28;20075;-55
2023/08/18 02:29:10;;;;;;;13.40;12.05;;;;;;;15.77;100.00;101654.47;1041233;28;20496;-55
2023/08/18 02:29:42;;;;;;;14.95;13.43;;;;;;;15.73;100.00;101642.56;1043676;28;20033;-54
2023/08/18 02:30:47;;;;;;;17.80;12.15;;;;;;;15.73;100.00;101644.44;1034463;28;20054;-54
2023/08/18 02:31:24;;;;;;;15.98;12.43;;;;;;;15.74;100.00;101652.25;1027051;28;20078;-52
2023/08/18 02:31:58;;;;;;;15.05;13.48;;;;;;;15.75;100.00;101645.00;1038808;28;20038;-52
2023/08/18 02:32:30;;;;;;;21.65;14.02;;;;;;;15.77;100.00;101649.09;1038947;28;20053;-51
2023/08/18 02:33:01;;;;;;;16.05;13.70;;;;;;;15.57;100.00;101642.38;1040889;28;20044;-53
2023/08/18 02:33:34;;;;;;;15.32;13.70;;;;;;;15.59;100.00;101641.13;1043039;28;20068;-51
2023/08/18 02:34:05;;;;;;;20.10;12.88;;;;;;;15.67;100.00;101651.53;1046038;28;20044;-52
2023/08/18 02:34:37;;;;;;;13.98;12.20;;;;;;;15.71;100.00;101639.28;1047788;28;20325;-52
2023/08/18 02:35:09;;;;;;;19.98;12.95;;;;;;;15.75;100.00;101640.47;1047160;28;20040;-54
2023/08/18 02:35:43;;;;;;;21.92;13.27;;;;;;;15.80;100.00;101644.31;1047302;28;20037;-55
2023/08/18 02:36:15;;;;;;;15.95;13.48;;;;;;;15.81;100.00;101643.25;1047285;28;20460;-54
2023/08/18 02:36:46;;;;;;;20.02;13.05;;;;;;;15.81;100.00;101643.25;1047433;28;20099;-54
2023/08/18 02:37:18;;;;;;;18.23;13.95;;;;;;;15.77;100.00;101646.41;1047472;28;20041;-55
2023/08/18 02:37:51;;;;;;;15.43;12.63;;;;;;;15.75;100.00;101639.66;1047205;28;20076;-54
2023/08/18 02:38:23;;;;;;;17.20;13.88;;;;;;;15.76;100.00;101647.47;1047915;28;20528;-54
2023/08/18 02:38:55;;;;;;;15.75;12.98;;;;;;;15.77;100.00;101646.41;1047885;28;20079;-55
2023/08/18 02:39:26;;;;;;;20.48;12.95;;;;;;;15.74;100.00;101638.81;1047484;28;20072;-55
2023/08/18 02:39:58;;;;;;;17.63;13.30;;;;;;;15.76;100.00;101644.78;1046779;28;20053;-54
2023/08/18 02:40:30;;;;;;;17.98;13.60;;;;;;;15.75;100.00;101640.47;1047608;28;20056;-53
2023/08/18 02:41:02;;;;;;;19.13;13.50;;;;;;;15.79;100.00;101640.81;1047172;28;20141;-50
2023/08/18 02:41:33;;;;;;;13.98;12.55;;;;;;;15.80;100.00;101641.63;1047929;28;20171;-52
2023/08/18 02:42:05;;;;;;;17.55;13.43;;;;;;;15.82;100.00;101640.34;1047605;28;20049;-53
2023/08/18 02:42:38;;;;;;;15.45;12.90;;;;;;;15.81;100.00;101638.72;1046962;28;20033;-52
2023/08/18 02:43:10;;;;;;;16.95;13.63;;;;;;;15.81;100.00;101637.91;1047420;28;20049;-53
2023/08/18 02:43:49;;;;;;;19.73;15.55;;;;;;;15.81;100.00;101643.25;1047504;28;20403;-53
2023/08/18 02:44:25;;;;;;;15.73;13.05;;;;;;;15.82;100.00;101640.34;1046756;28;20049;-53
2023/08/18 02:44:57;;;;;;;17.65;13.02;;;;;;;15.77;100.00;101635.69;1045474;28;20593;-54
2023/08/18 02:45:36;;;;;;;25.08;14.40;;;;;;;15.72;100.00;101648.97;1043317;28;20132;-54
2023/08/18 02:46:08;;;;;;;23.83;14.40;;;;;;;15.77;100.00;101642.91;1046225;28;20045;-50